Portada
METAR-TAF:

METAR-TAF

Aeroports :

Damasc, Síria

latitud: 33-25N, longitud: 036-31E, altitud: 608 m

Observació

L'informe es va fer fa 40 minuts, a les 07:00 UTC
Vent 5 kt del Nord-Est
Temperatura 20°C
Humitat 53%
Pressió 1019 hPa
Visibilitat 10 km o més
Escasses núvols a una alçada de 3000 ft
Núvols disperses a una alçada de 10000 ft

METAR: OSDI 150700Z 05005KT 9999 FEW030 SCT100 20/10 Q1019

Hora: 09:40 (07:40 UTC)

Pronòstic

Pronòstic vàlid del 15 a les 06 UTC al 16 a les 12 UTC
Vent 12 kt del Est/Nord-Est
Visibilitat: 8000 m
Escasses núvols a una alçada de 3000 ft
Núvols disperses a una alçada de 10000 ft
Temporalment
l' 15 a les 06 UTC al 16 a les 12 UTC
Vent 15 kt del Sud/Sud-Oest amb ràfegues de 25 kt
Visibilitat: 5000 m
Escasses núvols a una alçada de 2500 ft
Cel ennuvolat a una alçada de 3000 ft
Cel cobert a una alçada de 10000 ft
xàfecs de pluja

TAF: OSDI 1506/1612 07012KT 8000 FEW030 SCT100 TEMPO 1506/1612 20015G25KT 5000 SHRA FEW025 CB BKN030 OVC100

Observacions i pronòstics meteorològics de més de 4000 aeroports (METAR i TAF).

Les estacions disponibles són els punts grocs i vermells al mapa.

Posi el ratolí al punt desitjat per veure el nom de l'estació.

Feu clic per veure les observacions i els pronòstics meteorològics.

Per canviar el mapa: feu clic els botons verds amb una creu de color negre per apropar; al botó verd amb un guió per allunyar la imatge; o en les fletxes verdes per a mapes adjacents.


METAR-TAF: